createdAt,value
2023-03-21T00:01:05.494Z,90.23
2023-03-21T00:03:34.548Z,90.41
2023-03-21T00:06:07.121Z,90.46
2023-03-21T00:08:35.443Z,90.42
2023-03-21T00:11:06.290Z,90.28
2023-03-21T00:13:38.571Z,90.31
2023-03-21T00:16:22.053Z,90.24
2023-03-21T00:19:06.577Z,90.49
2023-03-21T00:21:55.618Z,90.66
2023-03-21T00:24:26.540Z,90.68
2023-03-21T00:27:00.208Z,90.57
2023-03-21T00:29:38.758Z,90.51
2023-03-21T00:32:06.845Z,90.73
2023-03-21T00:34:42.963Z,90.84
2023-03-21T00:37:14.654Z,90.91
2023-03-21T00:39:47.901Z,90.80
2023-03-21T00:42:16.766Z,90.92
2023-03-21T00:44:45.149Z,90.98
2023-03-21T00:47:13.835Z,91.01
2023-03-21T00:49:42.357Z,90.82
2023-03-21T00:52:24.839Z,90.98
2023-03-21T00:54:59.529Z,91.36
2023-03-21T00:57:38.471Z,91.31
2023-03-21T01:00:10.951Z,91.25
2023-03-21T01:03:14.045Z,91.40
2023-03-21T01:06:07.552Z,91.43
2023-03-21T01:08:51.247Z,91.37
2023-03-21T01:11:24.855Z,91.33
2023-03-21T01:14:04.221Z,91.13
2023-03-21T01:16:36.663Z,91.16
2023-03-21T01:19:09.242Z,91.23
2023-03-21T01:21:40.938Z,91.30
2023-03-21T01:24:09.702Z,91.24
2023-03-21T01:26:38.005Z,91.19
2023-03-21T01:29:06.484Z,91.13
2023-03-21T01:31:34.561Z,91.08
2023-03-21T01:34:02.609Z,91.02
2023-03-21T01:36:30.713Z,91.03
2023-03-21T01:39:06.225Z,90.99
2023-03-21T01:41:43.342Z,90.84
2023-03-21T01:44:20.987Z,90.84
2023-03-21T01:47:11.629Z,91.01
2023-03-21T01:50:22.331Z,91.04
2023-03-21T01:52:59.541Z,91.08
2023-03-21T01:55:31.413Z,91.79
2023-03-21T01:58:07.000Z,91.54
2023-03-21T02:00:50.275Z,87.87
2023-03-21T02:03:36.064Z,85.02
2023-03-21T02:06:40.870Z,80.32
2023-03-21T02:09:22.777Z,77.53
2023-03-21T02:11:51.111Z,75.03
2023-03-21T02:14:28.906Z,72.76
2023-03-21T02:17:28.839Z,68.73
2023-03-21T02:20:15.838Z,66.69
2023-03-21T02:23:14.733Z,66.72
2023-03-21T02:26:20.386Z,65.85
2023-03-21T02:28:58.110Z,65.83
2023-03-21T02:31:40.813Z,65.70
2023-03-21T02:34:39.939Z,66.73
2023-03-21T02:37:23.577Z,65.21
2023-03-21T02:40:17.062Z,66.15
2023-03-21T02:43:00.824Z,66.46
2023-03-21T02:45:40.654Z,67.44
2023-03-21T02:48:27.718Z,67.91
2023-03-21T02:51:01.327Z,67.70
2023-03-21T02:53:34.385Z,67.96
2023-03-21T02:56:10.968Z,68.48
2023-03-21T02:58:43.951Z,68.24
2023-03-21T03:01:12.328Z,68.58
2023-03-21T03:03:45.064Z,69.01
2023-03-21T03:06:25.888Z,68.83
2023-03-21T03:09:43.916Z,68.91
2023-03-21T03:12:29.718Z,69.70
2023-03-21T03:15:10.714Z,69.77
2023-03-21T03:17:57.818Z,69.97
2023-03-21T03:20:50.825Z,71.15
2023-03-21T03:23:31.022Z,72.26
2023-03-21T03:26:16.960Z,72.75
2023-03-21T03:28:51.474Z,73.22
2023-03-21T03:31:27.101Z,73.53
2023-03-21T03:34:04.826Z,73.53
2023-03-21T03:36:39.366Z,73.94
2023-03-21T03:39:15.692Z,74.17
2023-03-21T03:42:15.292Z,74.29
2023-03-21T03:44:56.149Z,74.21
2023-03-21T03:47:47.719Z,74.23
2023-03-21T03:50:46.653Z,74.96
2023-03-21T03:53:20.383Z,74.88
2023-03-21T03:55:51.415Z,75.34
2023-03-21T03:58:24.201Z,75.49
2023-03-21T04:00:56.439Z,75.98
2023-03-21T04:03:24.749Z,76.34
2023-03-21T04:05:54.213Z,76.71
2023-03-21T04:08:23.552Z,76.86
2023-03-21T04:10:54.171Z,77.05
2023-03-21T04:13:22.780Z,77.15
2023-03-21T04:16:20.355Z,77.58
2023-03-21T04:18:49.159Z,77.72
2023-03-21T04:21:21.835Z,77.60
2023-03-21T04:23:49.876Z,77.28
2023-03-21T04:26:17.711Z,76.91
2023-03-21T04:28:54.954Z,76.68
2023-03-21T04:31:41.767Z,76.59
2023-03-21T04:34:12.913Z,76.57
2023-03-21T04:36:47.499Z,76.46
2023-03-21T04:39:17.007Z,76.50
2023-03-21T04:41:48.621Z,76.39
2023-03-21T04:44:18.407Z,76.34
2023-03-21T04:46:47.282Z,76.27
2023-03-21T04:49:15.457Z,76.26
2023-03-21T04:51:45.507Z,76.36
2023-03-21T04:56:43.056Z,76.47
2023-03-21T04:59:14.367Z,76.93
2023-03-21T05:01:43.969Z,77.10
2023-03-21T05:04:14.493Z,77.69
2023-03-21T05:06:44.008Z,78.12
2023-03-21T05:09:13.099Z,78.72
2023-03-21T05:11:41.844Z,78.96
2023-03-21T05:14:14.413Z,78.99
2023-03-21T05:16:54.424Z,79.38
2023-03-21T05:19:35.873Z,79.62
2023-03-21T05:22:10.593Z,79.85
2023-03-21T05:24:42.252Z,80.29
2023-03-21T05:27:14.340Z,80.43
2023-03-21T05:29:45.842Z,80.75
2023-03-21T05:32:13.696Z,81.00
2023-03-21T05:34:41.588Z,81.10
2023-03-21T05:37:09.824Z,81.09
2023-03-21T05:39:48.966Z,81.09
2023-03-21T05:42:26.213Z,81.34
2023-03-21T05:44:54.797Z,81.39
2023-03-21T05:47:31.456Z,81.49
2023-03-21T05:50:00.875Z,81.62
2023-03-21T05:52:29.761Z,81.61
2023-03-21T05:54:58.568Z,81.49
2023-03-21T05:57:28.913Z,81.48
2023-03-21T06:00:04.410Z,81.57
2023-03-21T06:02:43.295Z,81.59
2023-03-21T06:05:28.090Z,81.54
2023-03-21T06:07:56.295Z,81.49
2023-03-21T06:10:24.229Z,81.35
2023-03-21T06:12:52.567Z,81.22
2023-03-21T06:15:39.623Z,81.08
2023-03-21T06:18:16.308Z,81.13
2023-03-21T06:20:54.821Z,81.17
2023-03-21T06:23:23.037Z,81.17
2023-03-21T06:25:51.116Z,81.23
2023-03-21T06:28:19.002Z,82.30
2023-03-21T06:30:47.296Z,81.27
2023-03-21T06:33:20.044Z,80.86
2023-03-21T06:35:56.211Z,80.71
2023-03-21T06:38:26.190Z,80.69
2023-03-21T06:40:54.397Z,80.59
2023-03-21T06:43:23.611Z,80.60
2023-03-21T06:45:51.690Z,80.61
2023-03-21T06:48:19.964Z,80.54
2023-03-21T06:50:51.394Z,80.58
2023-03-21T06:53:24.520Z,80.66
2023-03-21T06:56:13.533Z,80.76
2023-03-21T06:58:42.202Z,80.76
2023-03-21T07:01:16.015Z,80.66
2023-03-21T07:03:54.313Z,80.58
2023-03-21T07:06:26.930Z,80.52
2023-03-21T07:08:56.072Z,80.48
2023-03-21T07:11:25.781Z,80.39
2023-03-21T07:13:54.519Z,80.11
2023-03-21T07:16:25.162Z,79.89
2023-03-21T07:18:53.967Z,79.94
2023-03-21T07:21:22.158Z,80.00
2023-03-21T07:23:50.427Z,79.94
2023-03-21T07:26:18.648Z,79.79
2023-03-21T07:28:46.837Z,79.84
2023-03-21T07:31:17.376Z,79.93
2023-03-21T07:33:46.351Z,79.88
2023-03-21T07:36:16.420Z,79.90
2023-03-21T07:38:46.352Z,79.96
2023-03-21T07:43:47.905Z,80.14
2023-03-21T07:46:16.206Z,79.75
2023-03-21T07:48:44.164Z,79.61
2023-03-21T07:51:12.403Z,79.73
2023-03-21T07:53:42.053Z,79.91
2023-03-21T07:56:11.135Z,79.82
2023-03-21T07:58:39.435Z,79.62
2023-03-21T08:01:07.848Z,79.65
2023-03-21T08:03:35.880Z,79.81
2023-03-21T08:06:04.176Z,79.89
2023-03-21T08:08:32.481Z,80.10
2023-03-21T08:11:00.399Z,80.08
2023-03-21T08:13:28.664Z,80.08
2023-03-21T08:15:57.144Z,80.47
2023-03-21T08:18:25.560Z,80.82
2023-03-21T08:20:55.029Z,80.46
2023-03-21T08:23:24.666Z,80.34
2023-03-21T08:25:54.819Z,80.46
2023-03-21T08:28:23.750Z,80.20
2023-03-21T08:30:51.828Z,80.23
2023-03-21T08:33:20.434Z,80.09
2023-03-21T08:35:48.715Z,80.13
2023-03-21T08:38:17.146Z,79.58
2023-03-21T08:40:45.180Z,79.79
2023-03-21T08:43:14.940Z,80.10
2023-03-21T08:45:43.256Z,80.11
2023-03-21T08:48:11.184Z,80.05
2023-03-21T08:50:39.424Z,79.17
2023-03-21T08:53:07.509Z,79.24
2023-03-21T08:55:35.756Z,79.17
2023-03-21T08:58:05.091Z,78.82
2023-03-21T09:00:33.464Z,79.19
2023-03-21T09:03:01.619Z,79.08
2023-03-21T09:05:29.889Z,79.01
2023-03-21T09:07:58.105Z,79.01
2023-03-21T09:10:29.766Z,79.05
2023-03-21T09:12:57.941Z,79.14
2023-03-21T09:15:29.034Z,78.96
2023-03-21T09:17:58.989Z,78.85
2023-03-21T09:20:31.369Z,78.96
2023-03-21T09:23:00.055Z,79.19
2023-03-21T09:25:31.419Z,78.93
2023-03-21T09:28:02.314Z,78.95
2023-03-21T09:30:31.657Z,78.59
2023-03-21T09:33:01.387Z,78.80
2023-03-21T09:35:30.649Z,78.92
2023-03-21T09:37:59.710Z,79.20
2023-03-21T09:41:00.350Z,79.13
2023-03-21T09:43:56.051Z,79.12
2023-03-21T09:46:45.643Z,79.35
2023-03-21T09:49:21.975Z,79.27
2023-03-21T09:51:53.087Z,79.28
2023-03-21T09:54:33.610Z,79.31
2023-03-21T09:57:11.911Z,79.64
2023-03-21T09:59:43.590Z,79.88
2023-03-21T10:02:32.652Z,79.78
2023-03-21T10:05:00.850Z,79.93
2023-03-21T10:07:33.291Z,79.76
2023-03-21T10:10:04.714Z,79.93
2023-03-21T10:12:32.662Z,79.83
2023-03-21T10:15:02.596Z,80.11
2023-03-21T10:17:41.042Z,80.05
2023-03-21T10:20:41.784Z,80.07
2023-03-21T10:23:15.515Z,79.82
2023-03-21T10:25:48.801Z,79.51
2023-03-21T10:28:51.998Z,79.75
2023-03-21T10:31:26.323Z,80.08
2023-03-21T10:33:57.928Z,80.32
2023-03-21T10:36:30.435Z,79.92
2023-03-21T10:39:14.946Z,79.80
2023-03-21T10:41:43.736Z,79.98
2023-03-21T10:44:18.259Z,80.30
2023-03-21T10:46:56.718Z,80.35
2023-03-21T10:49:26.857Z,80.05
2023-03-21T10:51:58.576Z,79.94
2023-03-21T10:54:30.954Z,78.91
2023-03-21T10:57:12.225Z,78.62
2023-03-21T10:59:45.760Z,78.87
2023-03-21T11:02:21.261Z,78.51
2023-03-21T11:04:50.444Z,79.21
2023-03-21T11:07:20.289Z,78.65
2023-03-21T11:09:57.942Z,78.09
2023-03-21T11:12:37.788Z,77.68
2023-03-21T11:15:28.701Z,77.00
2023-03-21T11:17:58.245Z,76.92
2023-03-21T11:20:30.600Z,76.93
2023-03-21T11:22:58.757Z,76.48
2023-03-21T11:25:39.892Z,76.38
2023-03-21T11:28:25.555Z,76.70
2023-03-21T11:30:57.160Z,76.56
2023-03-21T11:33:52.567Z,75.92
2023-03-21T11:36:21.089Z,75.97
2023-03-21T11:39:01.258Z,76.33
2023-03-21T11:41:34.719Z,76.47
2023-03-21T11:44:03.741Z,75.85
2023-03-21T11:46:40.307Z,75.72
2023-03-21T11:49:10.022Z,75.99
2023-03-21T11:51:45.704Z,75.79
2023-03-21T11:54:47.814Z,75.97
2023-03-21T11:57:40.884Z,75.80
2023-03-21T12:00:26.283Z,75.69
2023-03-21T12:03:14.488Z,75.42
2023-03-21T12:05:56.241Z,75.36
2023-03-21T12:08:42.761Z,74.93
2023-03-21T12:11:26.074Z,74.69
2023-03-21T12:13:57.015Z,74.94
2023-03-21T12:16:51.030Z,74.22
2023-03-21T12:19:43.396Z,74.95
2023-03-21T12:22:28.545Z,74.42
2023-03-21T12:25:17.996Z,74.74
2023-03-21T12:28:08.626Z,74.99
2023-03-21T12:30:57.906Z,74.64
2023-03-21T12:34:01.358Z,74.44
2023-03-21T12:36:57.880Z,73.24
2023-03-21T12:39:36.083Z,72.97
2023-03-21T12:42:18.233Z,72.91
2023-03-21T12:44:54.276Z,73.28
2023-03-21T12:47:26.938Z,73.92
2023-03-21T12:50:37.544Z,73.94
2023-03-21T12:53:42.418Z,74.33
2023-03-21T12:56:16.983Z,75.12
2023-03-21T12:58:55.328Z,75.69
2023-03-21T13:01:25.063Z,76.59
2023-03-21T13:04:08.481Z,76.90
2023-03-21T13:06:37.945Z,76.84
2023-03-21T13:09:37.396Z,76.72
2023-03-21T13:12:26.194Z,76.24
2023-03-21T13:15:25.887Z,76.00
2023-03-21T13:18:25.795Z,75.94
2023-03-21T13:20:57.193Z,76.15
2023-03-21T13:23:33.308Z,76.08
2023-03-21T13:26:01.658Z,76.29
2023-03-21T13:28:33.688Z,74.55
2023-03-21T13:31:25.609Z,74.48
2023-03-21T13:33:58.803Z,74.45
2023-03-21T13:36:31.908Z,74.43
2023-03-21T13:39:02.344Z,73.09
2023-03-21T13:41:43.609Z,72.75
2023-03-21T13:44:25.238Z,73.01
2023-03-21T13:47:03.909Z,73.97
2023-03-21T13:49:36.904Z,73.68
2023-03-21T13:52:11.236Z,73.58
2023-03-21T13:54:40.329Z,73.15
2023-03-21T13:57:38.414Z,72.01
2023-03-21T14:00:29.518Z,71.40
2023-03-21T14:03:02.088Z,72.21
2023-03-21T14:05:31.935Z,70.68
2023-03-21T14:08:21.428Z,71.19
2023-03-21T14:10:57.982Z,70.83
2023-03-21T14:13:28.517Z,68.55
2023-03-21T14:16:06.688Z,68.39
2023-03-21T14:18:53.604Z,68.75
2023-03-21T14:21:28.442Z,67.40
2023-03-21T14:24:07.804Z,67.75
2023-03-21T14:26:41.231Z,66.44
2023-03-21T14:29:25.836Z,64.48
2023-03-21T14:31:56.597Z,64.41
2023-03-21T14:34:27.412Z,65.25
2023-03-21T14:36:58.571Z,65.09
2023-03-21T14:39:29.949Z,65.13
2023-03-21T14:42:02.834Z,64.00
2023-03-21T14:44:53.063Z,64.05
2023-03-21T14:47:26.048Z,64.43
2023-03-21T14:49:54.736Z,63.42
2023-03-21T14:52:34.426Z,63.25
2023-03-21T14:55:11.783Z,63.11
2023-03-21T14:57:39.996Z,62.89
2023-03-21T15:00:18.775Z,63.34
2023-03-21T15:02:46.993Z,63.34
2023-03-21T15:05:37.558Z,63.30
2023-03-21T15:08:14.305Z,63.14
2023-03-21T15:11:04.348Z,63.44
2023-03-21T15:13:38.112Z,64.52
2023-03-21T15:16:07.454Z,63.60
2023-03-21T15:18:38.905Z,63.66
2023-03-21T15:21:30.473Z,63.17
2023-03-21T15:24:05.588Z,63.96
2023-03-21T15:26:33.713Z,63.62
2023-03-21T15:29:02.430Z,63.66
2023-03-21T15:31:35.230Z,63.90
2023-03-21T15:34:04.406Z,64.23
2023-03-21T15:36:36.957Z,63.93
2023-03-21T15:39:08.816Z,64.74
2023-03-21T15:41:37.546Z,64.92
2023-03-21T15:44:13.816Z,64.86
2023-03-21T15:46:43.308Z,65.12
2023-03-21T15:49:16.986Z,65.42
2023-03-21T15:51:48.859Z,65.51
2023-03-21T15:54:24.031Z,65.41
2023-03-21T15:57:01.507Z,65.47
2023-03-21T15:59:36.671Z,65.78
2023-03-21T16:02:06.011Z,65.98
2023-03-21T16:04:57.991Z,66.01
2023-03-21T16:07:27.135Z,65.93
2023-03-21T16:10:01.670Z,66.10
2023-03-21T16:12:29.967Z,65.74
2023-03-21T16:14:57.872Z,66.27
2023-03-21T16:17:38.015Z,66.27
2023-03-21T16:20:18.152Z,66.62
2023-03-21T16:22:47.674Z,66.86
2023-03-21T16:25:16.914Z,66.60
2023-03-21T16:27:46.543Z,66.60
2023-03-21T16:30:18.283Z,66.45
2023-03-21T16:32:47.126Z,66.87
2023-03-21T16:35:15.075Z,67.14
2023-03-21T16:37:43.506Z,67.04
2023-03-21T16:40:23.827Z,67.15
2023-03-21T16:42:52.035Z,67.44
2023-03-21T16:45:20.230Z,67.44
2023-03-21T16:47:48.365Z,67.60
2023-03-21T16:50:31.178Z,67.78
2023-03-21T16:53:00.181Z,67.64
2023-03-21T16:55:29.135Z,67.64
2023-03-21T16:57:57.774Z,67.80
2023-03-21T17:00:27.980Z,67.91
2023-03-21T17:02:59.621Z,68.03
2023-03-21T17:05:30.743Z,68.30
2023-03-21T17:08:02.519Z,68.41
2023-03-21T17:10:32.914Z,68.66
2023-03-21T17:13:01.090Z,68.86
2023-03-21T17:15:29.964Z,69.08
2023-03-21T17:17:58.225Z,69.16
2023-03-21T17:20:31.709Z,69.19
2023-03-21T17:23:00.798Z,69.10
2023-03-21T17:25:28.723Z,69.33
2023-03-21T17:27:57.133Z,69.52
2023-03-21T17:30:35.627Z,69.71
2023-03-21T17:33:04.426Z,70.02
2023-03-21T17:35:32.638Z,70.16
2023-03-21T17:38:00.558Z,70.07
2023-03-21T17:40:31.944Z,70.18
2023-03-21T17:43:01.647Z,70.31
2023-03-21T17:45:29.934Z,70.24
2023-03-21T17:47:58.126Z,70.23
2023-03-21T17:50:31.387Z,70.51
2023-03-21T17:53:02.308Z,70.63
2023-03-21T17:55:30.735Z,70.55
2023-03-21T17:57:58.709Z,70.61
2023-03-21T18:00:29.667Z,70.60
2023-03-21T18:02:57.953Z,70.62
2023-03-21T18:05:27.579Z,70.55
2023-03-21T18:08:10.467Z,70.85
2023-03-21T18:10:41.460Z,70.79
2023-03-21T18:13:10.226Z,71.04
2023-03-21T18:15:38.561Z,70.97
2023-03-21T18:18:06.809Z,71.01
2023-03-21T18:20:51.174Z,71.11
2023-03-21T18:23:21.025Z,71.22
2023-03-21T18:25:49.534Z,71.15
2023-03-21T18:28:20.455Z,71.07
2023-03-21T18:31:08.160Z,71.27
2023-03-21T18:33:40.413Z,71.23
2023-03-21T18:36:10.102Z,71.18
2023-03-21T18:38:38.950Z,71.25
2023-03-21T18:41:10.351Z,71.24
2023-03-21T18:46:27.584Z,71.21
2023-03-21T18:48:55.815Z,71.23
2023-03-21T18:51:24.357Z,71.29
2023-03-21T18:53:52.590Z,71.32
2023-03-21T18:57:19.609Z,71.32
2023-03-21T18:59:10.209Z,71.37
2023-03-21T19:01:38.691Z,71.28
2023-03-21T19:04:29.725Z,71.20
2023-03-21T19:06:57.725Z,71.42
2023-03-21T19:09:31.130Z,71.43
2023-03-21T19:12:01.565Z,71.49
2023-03-21T19:14:29.946Z,71.60
2023-03-21T19:17:55.582Z,71.63
2023-03-21T19:19:48.095Z,71.66
2023-03-21T19:22:16.260Z,71.60
2023-03-21T19:24:44.457Z,71.59
2023-03-21T19:27:13.527Z,71.56
2023-03-21T19:29:41.625Z,71.74
2023-03-21T19:32:10.190Z,71.64
2023-03-21T19:34:38.973Z,71.59
2023-03-21T19:37:07.223Z,71.52
2023-03-21T19:39:35.208Z,71.68
2023-03-21T19:42:15.913Z,71.68
2023-03-21T19:44:45.484Z,71.77
2023-03-21T19:47:13.883Z,71.77
2023-03-21T19:52:37.554Z,72.59
2023-03-21T19:55:05.869Z,73.05
2023-03-21T19:57:34.864Z,73.22
2023-03-21T20:00:04.489Z,73.08
2023-03-21T20:02:36.312Z,73.09
2023-03-21T20:05:08.503Z,73.13
2023-03-21T20:07:36.481Z,73.08
2023-03-21T20:10:06.020Z,73.11
2023-03-21T20:12:34.500Z,73.03
2023-03-21T20:15:16.670Z,73.12
2023-03-21T20:17:45.971Z,73.13
2023-03-21T20:20:17.375Z,72.99
2023-03-21T20:25:40.756Z,73.25
2023-03-21T20:28:24.700Z,73.15
2023-03-21T20:31:00.926Z,73.03
2023-03-21T20:33:29.710Z,73.11
2023-03-21T20:36:37.363Z,73.33
2023-03-21T20:38:55.918Z,73.24
2023-03-21T20:41:23.940Z,73.45
2023-03-21T20:46:43.767Z,73.52
2023-03-21T20:49:12.700Z,73.57
2023-03-21T20:52:40.911Z,73.58
2023-03-21T20:54:30.511Z,73.65
2023-03-21T20:56:58.494Z,73.56
2023-03-21T20:59:28.109Z,73.15
2023-03-21T21:01:58.185Z,72.99
2023-03-21T21:04:48.212Z,73.10
2023-03-21T21:07:21.247Z,73.00
2023-03-21T21:09:50.266Z,72.92
2023-03-21T21:12:19.514Z,73.00
2023-03-21T21:14:48.412Z,72.83
2023-03-21T21:20:16.798Z,72.72
2023-03-21T21:22:59.047Z,72.68
2023-03-21T21:25:32.054Z,72.71
2023-03-21T21:28:01.760Z,72.74
2023-03-21T21:30:32.770Z,72.85
2023-03-21T21:33:01.119Z,72.62
2023-03-21T21:35:29.259Z,72.76
2023-03-21T21:37:57.805Z,72.60
2023-03-21T21:40:25.813Z,72.67
2023-03-21T21:42:54.236Z,72.57
2023-03-21T21:45:22.582Z,72.54
2023-03-21T21:47:51.147Z,72.67
2023-03-21T21:50:22.031Z,72.79
2023-03-21T21:52:53.009Z,72.73
2023-03-21T21:55:21.416Z,72.77
2023-03-21T21:57:50.762Z,72.83
2023-03-21T22:00:20.153Z,72.72
2023-03-21T22:02:48.282Z,72.72
2023-03-21T22:05:19.060Z,72.69
2023-03-21T22:07:49.018Z,72.64
2023-03-21T22:10:17.037Z,72.65
2023-03-21T22:12:44.978Z,72.64
2023-03-21T22:15:13.443Z,72.48
2023-03-21T22:17:41.688Z,72.55
2023-03-21T22:20:12.260Z,72.67
2023-03-21T22:22:41.513Z,72.83
2023-03-21T22:25:12.397Z,72.78
2023-03-21T22:27:40.762Z,73.05
2023-03-21T22:30:13.895Z,73.29
2023-03-21T22:32:42.099Z,73.11
2023-03-21T22:35:11.015Z,73.11
2023-03-21T22:37:41.506Z,73.41
2023-03-21T22:40:13.680Z,75.47
2023-03-21T22:42:48.610Z,75.79
2023-03-21T22:45:17.284Z,73.06
2023-03-21T22:47:45.392Z,73.83
2023-03-21T22:50:13.601Z,72.73
2023-03-21T22:52:41.583Z,70.01
2023-03-21T22:55:12.703Z,69.36
2023-03-21T22:57:40.837Z,69.16
2023-03-21T23:00:13.279Z,69.52
2023-03-21T23:02:42.089Z,69.42
2023-03-21T23:05:10.597Z,69.62
2023-03-21T23:07:39.039Z,69.97
2023-03-21T23:10:08.257Z,69.76
2023-03-21T23:12:37.599Z,70.08
2023-03-21T23:15:08.037Z,70.28
2023-03-21T23:17:36.303Z,70.53
2023-03-21T23:20:08.004Z,70.59
2023-03-21T23:22:36.334Z,70.90
2023-03-21T23:25:05.152Z,71.65
2023-03-21T23:27:35.348Z,71.95
2023-03-21T23:30:06.525Z,72.99
2023-03-21T23:32:35.427Z,72.79
2023-03-21T23:35:03.666Z,72.85
2023-03-21T23:37:31.726Z,72.96
2023-03-21T23:39:59.942Z,73.34
2023-03-21T23:42:29.391Z,73.62
2023-03-21T23:44:57.633Z,74.03
2023-03-21T23:47:25.648Z,74.45
2023-03-21T23:49:53.532Z,74.59
2023-03-21T23:52:21.885Z,74.87
2023-03-21T23:54:49.963Z,74.83
2023-03-21T23:57:18.106Z,74.96
2023-03-21T23:59:47.195Z,75.26
